Time;durP1;ratioP1;P1;durP2;ratioP2;P2;SDS_P1;SDS_P2;PMS_P1;PMS_P2;Temp;Humidity;BMP_temperature;BMP_pressure;BME280_temperature;BME280_humidity;BME280_pressure;Samples;Min_cycle;Max_cycle;Signal;HPM_P1;HPM_P2
2022/08/23 00:01:53;;;;;;;;;;;;;;;16.99;45.34;100047.03;5071082;28;992;-52
2022/08/23 00:04:20;;;;;;;;;;;;;;;16.92;45.49;100037.19;5074475;28;997;-54
2022/08/23 00:06:46;;;;;;;;;;;;;;;16.84;45.48;100042.50;5071332;28;2012;-52
2022/08/23 00:09:11;;;;;;;;;;;;;;;16.80;45.87;100039.50;5067494;28;1122;-51
2022/08/23 00:11:41;;;;;;;;;;;;;;;16.82;45.70;100045.53;5072154;28;1132;-52
2022/08/23 00:14:11;;;;;;;;;;;;;;;16.81;45.69;100040.34;5077673;28;1020;-54
2022/08/23 00:16:36;;;;;;;;;;;;;;;16.87;45.56;100041.91;5075978;28;1202;-53
2022/08/23 00:19:02;;;;;;;;;;;;;;;16.84;45.47;100045.25;5067311;28;965;-52
2022/08/23 00:21:28;;;;;;;;;;;;;;;16.82;45.67;100042.00;5072704;28;993;-52
2022/08/23 00:23:54;;;;;;;;;;;;;;;16.89;45.40;100047.97;5060511;28;966;-54
2022/08/23 00:26:19;;;;;;;;;;;;;;;16.75;45.45;100043.16;5073061;28;1902;-53
2022/08/23 00:28:46;;;;;;;;;;;;;;;16.84;45.51;100050.75;5070726;28;1174;-55
2022/08/23 00:31:11;;;;;;;;;;;;;;;16.84;45.33;100056.22;5075220;28;1001;-54
2022/08/23 00:33:37;;;;;;;;;;;;;;;16.83;45.50;100060.09;5073227;28;1116;-55
2022/08/23 00:36:02;;;;;;;;;;;;;;;16.87;45.46;100064.72;5071257;28;914;-55
2022/08/23 00:38:28;;;;;;;;;;;;;;;16.82;45.29;100061.22;5077165;28;997;-53
2022/08/23 00:40:53;;;;;;;;;;;;;;;16.80;45.72;100069.72;5076877;28;1226;-54
2022/08/23 00:49:09;;;;;;;;;;;;;;;16.79;45.35;100062.63;5070509;28;1006;-54
2022/08/23 00:51:37;;;;;;;;;;;;;;;16.70;45.55;100061.59;5058913;28;1298;-54
2022/08/23 00:54:03;;;;;;;;;;;;;;;16.77;45.26;100065.66;5070677;28;951;-55
2022/08/23 00:56:29;;;;;;;;;;;;;;;16.72;45.69;100065.69;5049419;28;1071;-54
2022/08/23 00:58:54;;;;;;;;;;;;;;;16.72;45.50;100065.69;5070831;28;1028;-55
2022/08/23 01:01:20;;;;;;;;;;;;;;;16.76;45.39;100066.75;5070695;28;989;-53
2022/08/23 01:03:50;;;;;;;;;;;;;;;16.75;45.52;100070.59;5061823;28;1021;-56
2022/08/23 01:06:17;;;;;;;;;;;;;;;16.75;45.58;100067.84;5073200;28;1970;-54
2022/08/23 01:08:45;;;;;;;;;;;;;;;16.84;45.30;100073.50;5055658;28;1069;-54
2022/08/23 01:11:32;;;;;;;;;;;;;;;16.77;45.63;100073.88;5070754;28;973;-55
2022/08/23 01:14:16;;;;;;;;;;;;;;;16.66;45.46;100080.59;5064315;28;1147;-54
2022/08/23 01:16:46;;;;;;;;;;;;;;;16.72;45.28;100082.19;5074018;28;1147;-55
2022/08/23 01:19:27;;;;;;;;;;;;;;;16.74;45.33;100079.13;5030866;28;1108;-54
2022/08/23 01:21:56;;;;;;;;;;;;;;;16.72;45.29;100075.88;5043854;28;1253;-55
2022/08/23 01:24:21;;;;;;;;;;;;;;;16.75;45.29;100076.09;5032383;28;1080;-55
2022/08/23 01:26:47;;;;;;;;;;;;;;;16.76;45.40;100074.19;5023224;28;1906;-54
2022/08/23 01:29:15;;;;;;;;;;;;;;;16.68;45.33;100070.13;5071078;28;969;-54
2022/08/23 01:31:42;;;;;;;;;;;;;;;16.72;45.54;100076.69;5054611;28;1127;-54
2022/08/23 01:34:08;;;;;;;;;;;;;;;16.72;45.22;100075.88;5061041;28;1116;-55
2022/08/23 01:36:34;;;;;;;;;;;;;;;16.68;45.47;100075.63;5066247;28;863;-54
2022/08/23 01:39:00;;;;;;;;;;;;;;;16.71;45.42;100066.00;5055833;28;1144;-54
2022/08/23 01:41:26;;;;;;;;;;;;;;;16.71;45.29;100069.53;5058426;28;1162;-54
2022/08/23 01:43:51;;;;;;;;;;;;;;;16.63;45.75;100078.41;5072344;28;1009;-55
2022/08/23 01:46:19;;;;;;;;;;;;;;;16.62;45.56;100076.81;5054250;28;1977;-55
2022/08/23 01:48:45;;;;;;;;;;;;;;;16.75;45.45;100069.78;5051331;28;1554;-53
2022/08/23 01:51:11;;;;;;;;;;;;;;;16.66;45.74;100072.38;5057271;28;1334;-54
2022/08/23 01:53:37;;;;;;;;;;;;;;;16.69;45.29;100071.78;5058657;28;1154;-54
2022/08/23 01:56:03;;;;;;;;;;;;;;;16.67;45.40;100073.97;5049507;28;1396;-53
2022/08/23 01:58:31;;;;;;;;;;;;;;;16.74;45.63;100090.91;5048833;28;855;-53
2022/08/23 02:00:57;;;;;;;;;;;;;;;16.72;45.33;100079.44;5051591;28;1166;-52
2022/08/23 02:03:22;;;;;;;;;;;;;;;16.61;45.86;100080.66;5049670;28;1214;-51
2022/08/23 02:05:48;;;;;;;;;;;;;;;16.72;45.63;100079.44;5045635;28;1902;-51
2022/08/23 02:10:59;;;;;;;;;;;;;;;16.63;45.70;100077.59;5051541;28;1164;-54
2022/08/23 02:13:25;;;;;;;;;;;;;;;16.73;45.43;100075.59;5044727;28;1200;-54
2022/08/23 02:15:51;;;;;;;;;;;;;;;16.73;45.26;100077.50;5056866;28;1255;-54
2022/08/23 02:18:18;;;;;;;;;;;;;;;16.63;45.76;100089.41;5057029;28;1129;-54
2022/08/23 02:20:48;;;;;;;;;;;;;;;16.63;45.74;100086.66;5051776;28;1100;-54
2022/08/23 02:23:14;;;;;;;;;;;;;;;16.67;45.41;100090.47;5050493;28;1530;-51
2022/08/23 02:25:40;;;;;;;;;;;;;;;16.71;45.21;100087.97;5062512;28;1966;-53
2022/08/23 02:28:05;;;;;;;;;;;;;;;16.67;45.29;100100.63;5071017;28;1016;-53
2022/08/23 02:30:30;;;;;;;;;;;;;;;16.70;45.62;100100.84;5053892;28;1455;-52
2022/08/23 02:32:56;;;;;;;;;;;;;;;16.72;45.26;100093.16;5054318;28;1450;-55
2022/08/23 02:35:22;;;;;;;;;;;;;;;16.67;45.36;100112.41;5054477;28;1171;-52
2022/08/23 02:37:49;;;;;;;;;;;;;;;16.75;45.47;100114.53;5051716;28;1236;-55
2022/08/23 02:40:14;;;;;;;;;;;;;;;16.68;45.68;100122.28;5055492;28;1168;-55
2022/08/23 02:42:40;;;;;;;;;;;;;;;16.60;45.91;100117.44;5056290;28;1281;-53
2022/08/23 02:45:07;;;;;;;;;;;;;;;16.60;45.76;100123.72;5072344;28;1016;-55
2022/08/23 02:47:36;;;;;;;;;;;;;;;16.72;45.35;100126.09;5053961;28;1906;-55
2022/08/23 02:50:13;;;;;;;;;;;;;;;16.62;45.63;100128.13;5049803;28;1198;-54
2022/08/23 02:52:38;;;;;;;;;;;;;;;16.61;45.82;100124.56;5046672;28;1316;-53
2022/08/23 02:55:04;;;;;;;;;;;;;;;16.82;45.09;100133.41;5061995;28;1239;-55
2022/08/23 02:57:29;;;;;;;;;;;;;;;16.69;45.41;100134.09;5058682;28;828;-55
2022/08/23 02:59:56;;;;;;;;;;;;;;;16.66;45.51;100142.91;5041736;28;1167;-54
2022/08/23 03:02:22;;;;;;;;;;;;;;;16.68;45.43;100151.69;5050950;28;1294;-54
2022/08/23 03:04:47;;;;;;;;;;;;;;;16.74;45.25;100148.56;5042389;28;1362;-53
2022/08/23 03:07:13;;;;;;;;;;;;;;;16.74;45.18;100151.31;5047187;28;1894;-55
2022/08/23 03:09:38;;;;;;;;;;;;;;;16.62;45.50;100166.53;5050178;28;1167;-52
2022/08/23 03:12:04;;;;;;;;;;;;;;;16.63;45.41;100159.97;5046523;28;1118;-51
2022/08/23 03:14:34;;;;;;;;;;;;;;;16.57;45.62;100162.75;5052347;28;1358;-51
2022/08/23 03:17:00;;;;;;;;;;;;;;;16.65;45.69;100155.81;5050175;28;1337;-52
2022/08/23 03:19:26;;;;;;;;;;;;;;;16.60;45.50;100166.84;5037360;28;1292;-52
2022/08/23 03:21:52;;;;;;;;;;;;;;;16.69;45.27;100156.03;5050666;28;1401;-52
2022/08/23 03:24:18;;;;;;;;;;;;;;;16.55;45.86;100164.97;5041536;28;1210;-53
2022/08/23 03:26:44;;;;;;;;;;;;;;;16.60;45.50;100158.59;5045548;28;1894;-51
2022/08/23 03:29:11;;;;;;;;;;;;;;;16.67;45.64;100158.28;5065995;28;1005;-50
2022/08/23 03:31:54;;;;;;;;;;;;;;;16.67;45.40;100156.34;5067865;28;1087;-53
2022/08/23 03:34:20;;;;;;;;;;;;;;;16.63;45.50;100166.25;5050431;28;1221;-50
2022/08/23 03:36:45;;;;;;;;;;;;;;;16.57;45.84;100161.94;5049406;28;1448;-50
2022/08/23 03:39:11;;;;;;;;;;;;;;;16.60;45.69;100166.84;5045499;28;1258;-50
2022/08/23 03:41:36;;;;;;;;;;;;;;;16.53;45.66;100166.38;5068318;28;1334;-54
2022/08/23 03:44:02;;;;;;;;;;;;;;;16.70;45.50;100171.41;5052523;28;1490;-50
2022/08/23 03:46:31;;;;;;;;;;;;;;;16.62;45.62;100172.88;5039957;28;1897;-48
2022/08/23 03:48:59;;;;;;;;;;;;;;;16.66;45.41;100170.34;5041789;28;1474;-50
2022/08/23 03:51:26;;;;;;;;;;;;;;;16.68;45.47;100166.22;5048610;28;1147;-49
2022/08/23 03:53:53;;;;;;;;;;;;;;;16.64;45.73;100170.66;5047568;28;1267;-50
2022/08/23 03:56:22;;;;;;;;;;;;;;;16.63;45.54;100170.94;5063930;28;1159;-55
2022/08/23 03:58:49;;;;;;;;;;;;;;;16.61;45.71;100176.72;5047899;28;1352;-55
2022/08/23 04:01:15;;;;;;;;;;;;;;;16.69;45.56;100178.84;5044611;28;1569;-55
2022/08/23 04:03:41;;;;;;;;;;;;;;;16.70;45.48;100185.94;5046667;28;1150;-56
2022/08/23 04:06:07;;;;;;;;;;;;;;;16.68;45.42;100195.59;5051706;28;2314;-57
2022/08/23 04:08:33;;;;;;;;;;;;;;;16.64;45.50;100181.63;5047060;28;1369;-49
2022/08/23 04:10:58;;;;;;;;;;;;;;;16.60;45.89;100189.59;5054464;28;1001;-54
2022/08/23 04:13:24;;;;;;;;;;;;;;;16.76;45.53;100184.81;5047873;28;1595;-48
2022/08/23 04:15:49;;;;;;;;;;;;;;;16.57;45.99;100184.69;5055800;28;1162;-46
2022/08/23 04:18:16;;;;;;;;;;;;;;;16.62;45.75;100185.75;5057502;28;1280;-50
2022/08/23 04:20:42;;;;;;;;;;;;;;;16.70;45.78;100191.44;5058864;28;1171;-50
2022/08/23 04:23:07;;;;;;;;;;;;;;;16.62;45.75;100174.78;5054592;28;1170;-47
2022/08/23 04:25:44;;;;;;;;;;;;;;;16.71;45.80;100171.13;5043016;28;1929;-52
2022/08/23 04:28:10;;;;;;;;;;;;;;;16.68;45.58;100173.66;5056065;28;1233;-51
2022/08/23 04:30:36;;;;;;;;;;;;;;;16.69;45.91;100176.09;5052490;28;1157;-57
2022/08/23 04:33:03;;;;;;;;;;;;;;;16.65;46.05;100169.53;5057873;28;1189;-55
2022/08/23 04:35:31;;;;;;;;;;;;;;;16.71;46.03;100168.38;5044807;28;1452;-49
2022/08/23 04:37:56;;;;;;;;;;;;;;;16.72;45.75;100174.72;5050199;28;1148;-54
2022/08/23 04:43:07;;;;;;;;;;;;;;;16.68;45.83;100190.94;5055500;28;1183;-60
2022/08/23 04:45:33;;;;;;;;;;;;;;;16.73;45.67;100190.06;5066237;28;1013;-61
2022/08/23 04:47:58;;;;;;;;;;;;;;;16.77;45.86;100189.19;5052949;28;1917;-57
2022/08/23 04:50:25;;;;;;;;;;;;;;;16.69;46.02;100200.81;5047759;28;1397;-61
2022/08/23 04:53:10;;;;;;;;;;;;;;;16.68;45.66;100201.09;5069424;28;1219;-60
2022/08/23 04:55:43;;;;;;;;;;;;;;;16.72;45.70;100197.47;5050767;28;1164;-61
2022/08/23 04:58:09;;;;;;;;;;;;;;;16.71;45.52;100212.31;5055353;28;1334;-57
2022/08/23 05:00:42;;;;;;;;;;;;;;;16.70;45.91;100210.66;5061901;28;1457;-59
2022/08/23 05:03:08;;;;;;;;;;;;;;;16.73;45.64;100210.09;5050579;28;1318;-61
2022/08/23 05:05:34;;;;;;;;;;;;;;;16.65;45.82;100218.97;5057068;28;1323;-60
2022/08/23 05:08:01;;;;;;;;;;;;;;;16.68;45.83;100218.38;5053252;28;1914;-61
2022/08/23 05:10:27;;;;;;;;;;;;;;;16.70;45.85;100216.16;5056008;28;1290;-61
2022/08/23 05:12:53;;;;;;;;;;;;;;;16.67;45.79;100213.97;5049561;28;1340;-62
2022/08/23 05:15:20;;;;;;;;;;;;;;;16.69;45.91;100214.53;5056300;28;1152;-61
2022/08/23 05:17:51;;;;;;;;;;;;;;;16.74;45.85;100216.41;5075660;28;1001;-60
2022/08/23 05:20:17;;;;;;;;;;;;;;;16.78;45.76;100222.97;5057783;28;1203;-62
2022/08/23 05:22:43;;;;;;;;;;;;;;;16.73;45.67;100214.75;5052052;28;1502;-61
2022/08/23 05:28:17;;;;;;;;;;;;;;;16.68;45.92;100221.13;5049328;28;1118;-59
2022/08/23 05:30:44;;;;;;;;;;;;;;;16.70;46.09;100220.84;5076427;28;1009;-59
2022/08/23 05:33:10;;;;;;;;;;;;;;;16.69;45.77;100221.94;5058328;28;1096;-58
2022/08/23 05:35:35;;;;;;;;;;;;;;;16.67;46.41;100224.97;5058848;28;1304;-55
2022/08/23 05:38:03;;;;;;;;;;;;;;;16.76;46.51;100228.75;5052668;28;1370;-59
2022/08/23 05:40:28;;;;;;;;;;;;;;;16.71;46.76;100223.28;5058797;28;1353;-60
2022/08/23 05:43:03;;;;;;;;;;;;;;;16.74;46.83;100222.69;5057501;28;1370;-58
2022/08/23 05:45:29;;;;;;;;;;;;;;;17.85;45.91;100230.31;5068690;28;1072;-58
2022/08/23 05:47:55;;;;;;;;;;;;;;;17.75;46.73;100221.13;5058487;28;1909;-57
2022/08/23 05:50:25;;;;;;;;;;;;;;;17.50;48.38;100229.66;5054114;28;1338;-60
2022/08/23 05:52:51;;;;;;;;;;;;;;;17.38;49.46;100225.41;5045953;28;1516;-59
2022/08/23 05:55:17;;;;;;;;;;;;;;;17.28;49.94;100231.03;5043865;28;1570;-56
2022/08/23 05:57:54;;;;;;;;;;;;;;;17.26;50.24;100224.97;5062406;28;1422;-57
2022/08/23 06:00:20;;;;;;;;;;;;;;;17.20;50.96;100220.66;5062300;28;1489;-62
2022/08/23 06:02:49;;;;;;;;;;;;;;;17.14;51.22;100219.06;5042169;28;1403;-55
2022/08/23 06:05:18;;;;;;;;;;;;;;;17.10;51.71;100221.59;5044436;28;1485;-57
2022/08/23 06:07:45;;;;;;;;;;;;;;;17.04;52.06;100217.25;5043969;28;1906;-58
2022/08/23 06:10:10;;;;;;;;;;;;;;;17.03;52.24;100219.19;5044928;28;1184;-58
2022/08/23 06:12:36;;;;;;;;;;;;;;;16.99;52.33;100217.31;5043027;28;1422;-59
2022/08/23 06:15:02;;;;;;;;;;;;;;;16.97;52.54;100223.09;5044845;28;1261;-51
2022/08/23 06:17:28;;;;;;;;;;;;;;;16.96;52.74;100224.19;5042958;28;1465;-59
2022/08/23 06:19:54;;;;;;;;;;;;;;;16.96;52.83;100229.69;5051145;28;1156;-57
2022/08/23 06:22:45;;;;;;;;;;;;;;;16.94;53.25;100220.91;5070661;28;1047;-55
2022/08/23 06:25:11;;;;;;;;;;;;;;;16.96;53.90;100220.63;5054343;28;1279;-57
2022/08/23 06:27:48;;;;;;;;;;;;;;;16.90;54.06;100225.34;5047131;28;1913;-54
2022/08/23 06:30:14;;;;;;;;;;;;;;;16.88;53.77;100230.28;5054859;28;1183;-56
2022/08/23 06:32:42;;;;;;;;;;;;;;;16.88;53.95;100230.28;5069526;28;1224;-60
2022/08/23 06:35:26;;;;;;;;;;;;;;;16.81;54.03;100240.78;5070179;28;1176;-60
2022/08/23 06:37:55;;;;;;;;;;;;;;;16.83;54.37;100233.06;5050549;28;2066;-60
2022/08/23 06:40:39;;;;;;;;;;;;;;;16.79;54.58;100226.50;5071121;28;1112;-59
2022/08/23 06:43:22;;;;;;;;;;;;;;;16.83;54.34;100224.84;5066527;28;1338;-59
2022/08/23 06:46:12;;;;;;;;;;;;;;;16.86;54.77;100229.78;5056387;28;1906;-58
2022/08/23 06:48:38;;;;;;;;;;;;;;;16.81;55.12;100230.63;5058955;28;1461;-56
2022/08/23 06:51:10;;;;;;;;;;;;;;;16.81;55.27;100227.06;5069024;28;1270;-56
2022/08/23 06:53:50;;;;;;;;;;;;;;;16.77;55.13;100226.81;5048357;28;1525;-61
2022/08/23 06:56:52;;;;;;;;;;;;;;;16.80;55.09;100230.91;5007516;28;1277;-57
2022/08/23 06:59:22;;;;;;;;;;;;;;;16.82;55.06;100228.72;5026605;28;1274;-59
2022/08/23 07:02:06;;;;;;;;;;;;;;;16.79;55.18;100241.09;5021707;28;1160;-58
2022/08/23 07:05:04;;;;;;;;;;;;;;;16.76;55.33;100233.44;4997628;28;1177;-58
2022/08/23 07:07:35;;;;;;;;;;;;;;;16.76;55.46;100247.97;5035522;28;1907;-57
2022/08/23 07:10:02;;;;;;;;;;;;;;;16.71;55.49;100245.25;5027551;28;1320;-56
2022/08/23 07:12:29;;;;;;;;;;;;;;;16.77;55.49;100246.88;5032702;28;1301;-59
2022/08/23 07:14:55;;;;;;;;;;;;;;;16.74;55.39;100249.34;5023758;28;1275;-56
2022/08/23 07:17:20;;;;;;;;;;;;;;;16.72;55.48;100243.34;5017478;28;1160;-61
2022/08/23 07:19:47;;;;;;;;;;;;;;;16.72;55.36;100246.09;5028116;28;1314;-60
2022/08/23 07:22:13;;;;;;;;;;;;;;;16.69;55.51;100241.97;5034187;28;1181;-59
2022/08/23 07:24:39;;;;;;;;;;;;;;;16.73;55.43;100233.97;5034804;28;1048;-58
2022/08/23 07:27:05;;;;;;;;;;;;;;;16.72;55.46;100235.91;5021883;28;1914;-58
2022/08/23 07:29:32;;;;;;;;;;;;;;;16.72;55.49;100235.09;5026695;28;1515;-58
2022/08/23 07:31:58;;;;;;;;;;;;;;;16.68;55.67;100237.59;5019472;28;1415;-58
2022/08/23 07:34:24;;;;;;;;;;;;;;;16.72;55.58;100238.66;5033317;28;1349;-58
2022/08/23 07:36:49;;;;;;;;;;;;;;;16.72;55.77;100241.41;5032153;28;1150;-57
2022/08/23 07:39:16;;;;;;;;;;;;;;;16.68;55.93;100250.50;5026959;28;1270;-56
2022/08/23 07:41:42;;;;;;;;;;;;;;;16.69;56.09;100247.47;5031827;28;978;-59
2022/08/23 07:44:09;;;;;;;;;;;;;;;16.72;56.19;100252.38;5033656;28;1389;-60
2022/08/23 07:46:36;;;;;;;;;;;;;;;16.74;56.02;100255.66;5025299;28;1976;-57
2022/08/23 07:49:02;;;;;;;;;;;;;;;16.72;56.05;100254.31;5014477;28;1229;-60
2022/08/23 07:51:33;;;;;;;;;;;;;;;16.68;56.11;100261.50;5016657;28;1441;-64
2022/08/23 07:54:02;;;;;;;;;;;;;;;16.68;56.26;100258.75;5033526;28;1277;-59
2022/08/23 07:56:28;;;;;;;;;;;;;;;16.67;56.53;100257.91;5041816;28;1363;-63
2022/08/23 07:59:03;;;;;;;;;;;;;;;16.69;56.51;100263.94;5057340;28;1258;-64
2022/08/23 08:01:44;;;;;;;;;;;;;;;16.72;56.84;100260.63;5056997;28;1099;-65
2022/08/23 08:04:11;;;;;;;;;;;;;;;16.80;57.40;100252.88;5048983;28;1421;-60
2022/08/23 08:06:40;;;;;;;;;;;;;;;16.90;57.94;100247.31;5039391;28;1905;-60
2022/08/23 08:09:06;;;;;;;;;;;;;;;16.88;58.12;100260.50;5058887;28;1068;-59
2022/08/23 08:11:32;;;;;;;;;;;;;;;16.82;57.88;100248.75;5055863;28;1157;-59
2022/08/23 08:14:00;;;;;;;;;;;;;;;16.82;57.62;100240.50;5042084;28;1513;-59
2022/08/23 08:16:30;;;;;;;;;;;;;;;16.85;57.66;100250.09;5050282;28;1345;-56
2022/08/23 08:18:56;;;;;;;;;;;;;;;16.85;57.26;100255.59;5047628;28;1264;-59
2022/08/23 08:21:41;;;;;;;;;;;;;;;16.85;57.11;100247.34;5055232;28;939;-60
2022/08/23 08:24:16;;;;;;;;;;;;;;;16.85;56.95;100244.59;5054121;28;1144;-54
2022/08/23 08:26:50;;;;;;;;;;;;;;;16.95;57.74;100239.03;5039035;28;1957;-55
2022/08/23 08:29:16;;;;;;;;;;;;;;;16.96;58.02;100234.34;5052656;28;1235;-55
2022/08/23 08:31:44;;;;;;;;;;;;;;;16.92;57.79;100228.63;5044429;28;1167;-54
2022/08/23 08:34:09;;;;;;;;;;;;;;;16.88;57.64;100227.53;5040898;28;1275;-55
2022/08/23 08:36:36;;;;;;;;;;;;;;;16.87;57.56;100215.75;5050431;28;1037;-56
2022/08/23 08:39:05;;;;;;;;;;;;;;;16.96;57.21;100204.13;5040965;28;1576;-55
2022/08/23 08:41:51;;;;;;;;;;;;;;;16.89;57.09;100208.06;5049890;28;1112;-54
2022/08/23 08:44:22;;;;;;;;;;;;;;;16.90;57.12;100203.38;5048139;28;1507;-53
2022/08/23 08:46:49;;;;;;;;;;;;;;;16.92;57.05;100195.69;5034421;28;1894;-55
2022/08/23 08:49:36;;;;;;;;;;;;;;;16.96;56.88;100204.97;5050091;28;1277;-55
2022/08/23 08:52:05;;;;;;;;;;;;;;;16.89;57.09;100201.75;5039422;28;1306;-55
2022/08/23 08:54:31;;;;;;;;;;;;;;;16.93;57.16;100203.63;5048214;28;1133;-54
2022/08/23 08:56:57;;;;;;;;;;;;;;;16.91;57.06;100202.28;5046346;28;1347;-56
2022/08/23 08:59:39;;;;;;;;;;;;;;;16.98;57.13;100213.72;5049910;28;1440;-54
2022/08/23 09:02:05;;;;;;;;;;;;;;;16.97;56.89;100219.50;5037902;28;1348;-56
2022/08/23 09:04:36;;;;;;;;;;;;;;;16.97;57.07;100216.78;5043400;28;1462;-54
2022/08/23 09:07:02;;;;;;;;;;;;;;;16.96;57.04;100217.88;5041371;28;1975;-55
2022/08/23 09:10:05;;;;;;;;;;;;;;;16.98;57.14;100224.72;5047976;28;1150;-55
2022/08/23 09:12:33;;;;;;;;;;;;;;;16.95;57.14;100222.56;4982197;28;1616;-55
2022/08/23 09:15:04;;;;;;;;;;;;;;;16.99;56.94;100229.09;5052026;28;1597;-54
2022/08/23 09:17:34;;;;;;;;;;;;;;;16.99;56.79;100229.09;5027957;28;1225;-56
2022/08/23 09:20:00;;;;;;;;;;;;;;;17.02;56.87;100227.72;5025422;28;983;-55
2022/08/23 09:22:32;;;;;;;;;;;;;;;17.02;57.05;100223.03;5041412;28;1206;-55
2022/08/23 09:24:58;;;;;;;;;;;;;;;17.02;57.21;100228.53;5042138;28;1190;-57
2022/08/23 09:27:29;;;;;;;;;;;;;;;16.99;57.34;100222.81;5049646;28;1914;-56
2022/08/23 09:29:57;;;;;;;;;;;;;;;17.05;57.52;100232.63;5052063;28;1036;-56
2022/08/23 09:32:31;;;;;;;;;;;;;;;17.00;57.58;100230.75;5049005;28;1256;-56
2022/08/23 09:35:05;;;;;;;;;;;;;;;16.99;57.89;100240.09;5050978;28;1363;-56
2022/08/23 09:37:31;;;;;;;;;;;;;;;17.01;57.80;100237.91;5057595;28;1229;-55
2022/08/23 09:40:19;;;;;;;;;;;;;;;17.02;57.70;100238.69;5035698;28;1241;-56
2022/08/23 09:42:46;;;;;;;;;;;;;;;17.03;58.00;100237.59;5055877;28;1261;-56
2022/08/23 09:45:33;;;;;;;;;;;;;;;17.06;57.86;100246.06;5077738;28;973;-57
2022/08/23 09:47:59;;;;;;;;;;;;;;;17.07;57.94;100249.66;5059200;28;1980;-56
2022/08/23 09:50:55;;;;;;;;;;;;;;;17.08;57.55;100252.09;5058921;28;1319;-57
2022/08/23 09:53:22;;;;;;;;;;;;;;;17.05;57.78;100244.41;5036667;28;1332;-56
2022/08/23 09:55:50;;;;;;;;;;;;;;;17.08;57.94;100245.78;5058931;28;1153;-57
2022/08/23 09:58:17;;;;;;;;;;;;;;;17.07;57.79;100246.91;5059067;28;1149;-57
2022/08/23 10:00:44;;;;;;;;;;;;;;;17.12;57.60;100251.50;5059081;28;1450;-54
2022/08/23 10:03:21;;;;;;;;;;;;;;;17.12;57.62;100246.84;5058598;28;1136;-55
2022/08/23 10:05:49;;;;;;;;;;;;;;;17.06;58.13;100248.00;5059005;28;1106;-57
2022/08/23 10:08:23;;;;;;;;;;;;;;;17.12;57.84;100248.78;5058704;28;1993;-58
2022/08/23 10:10:53;;;;;;;;;;;;;;;17.33;59.78;100250.19;5058766;28;1130;-55
2022/08/23 10:13:28;;;;;;;;;;;;;;;17.25;59.39;100243.41;5044025;28;1134;-58
2022/08/23 10:16:06;;;;;;;;;;;;;;;17.25;59.13;100248.91;5075580;28;832;-61
2022/08/23 10:18:42;;;;;;;;;;;;;;;17.23;58.66;100247.56;5058812;28;1375;-57
2022/08/23 10:21:14;;;;;;;;;;;;;;;17.20;58.64;100246.19;5058762;28;1174;-58
2022/08/23 10:23:47;;;;;;;;;;;;;;;17.19;58.31;100243.75;5058952;28;1263;-58
2022/08/23 10:26:26;;;;;;;;;;;;;;;17.22;58.15;100241.25;5039022;28;1913;-59
2022/08/23 10:32:15;;;;;;;;;;;;;;;17.18;58.38;100239.34;5048783;28;1552;-58
2022/08/23 10:34:55;;;;;;;;;;;;;;;17.22;58.16;100243.16;5041959;28;1131;-56
2022/08/23 10:37:30;;;;;;;;;;;;;;;17.24;58.20;100249.19;5050452;28;1410;-56
2022/08/23 10:40:06;;;;;;;;;;;;;;;17.32;58.94;100254.06;5068777;28;1351;-62
2022/08/23 10:42:35;;;;;;;;;;;;;;;17.38;59.15;100250.13;5057410;28;1109;-58
2022/08/23 10:45:15;;;;;;;;;;;;;;;17.34;58.88;100246.34;5040540;28;1530;-59
2022/08/23 10:47:57;;;;;;;;;;;;;;;17.31;58.77;100252.41;5044338;28;1914;-56
2022/08/23 10:50:23;;;;;;;;;;;;;;;17.34;58.74;100251.81;5040345;28;1124;-59
2022/08/23 10:53:08;;;;;;;;;;;;;;;17.31;58.87;100246.91;5057178;28;887;-59
2022/08/23 10:55:53;;;;;;;;;;;;;;;17.35;58.49;100242.47;5037826;28;1455;-58
2022/08/23 10:58:22;;;;;;;;;;;;;;;17.31;58.50;100244.19;5070707;28;1086;-57
2022/08/23 11:00:48;;;;;;;;;;;;;;;17.34;58.30;100240.03;5050523;28;1207;-59
2022/08/23 11:03:20;;;;;;;;;;;;;;;17.28;58.52;100237.31;5064889;28;1258;-58
2022/08/23 11:06:06;;;;;;;;;;;;;;;17.30;58.53;100239.78;5044824;28;1151;-56
2022/08/23 11:08:35;;;;;;;;;;;;;;;17.29;58.05;100227.13;5061437;28;1415;-61
2022/08/23 11:11:05;;;;;;;;;;;;;;;17.31;58.16;100235.94;5046921;28;1064;-62
2022/08/23 11:13:33;;;;;;;;;;;;;;;17.40;58.89;100225.94;5044441;28;1388;-57
2022/08/23 11:16:05;;;;;;;;;;;;;;;17.39;58.77;100238.03;5027705;28;1305;-57
2022/08/23 11:18:34;;;;;;;;;;;;;;;17.34;58.82;100240.84;5055425;28;1142;-58
2022/08/23 11:21:16;;;;;;;;;;;;;;;17.39;58.65;100240.78;5051282;28;1502;-57
2022/08/23 11:23:48;;;;;;;;;;;;;;;17.39;58.51;100240.78;5045093;28;1436;-60
2022/08/23 11:26:26;;;;;;;;;;;;;;;17.36;58.47;100235.88;5057862;28;1991;-60
2022/08/23 11:29:14;;;;;;;;;;;;;;;17.38;58.36;100235.59;5052619;28;1445;-57
2022/08/23 11:31:47;;;;;;;;;;;;;;;17.33;58.43;100241.94;5038794;28;1247;-59
2022/08/23 11:34:20;;;;;;;;;;;;;;;17.33;58.26;100239.19;5051168;28;1189;-57
2022/08/23 11:37:04;;;;;;;;;;;;;;;17.34;58.17;100232.59;5054826;28;1270;-58
2022/08/23 11:39:31;;;;;;;;;;;;;;;17.34;58.06;100229.84;5048649;28;1377;-58
2022/08/23 11:41:57;;;;;;;;;;;;;;;17.33;57.94;100233.69;5046642;28;2153;-57
2022/08/23 11:44:31;;;;;;;;;;;;;;;17.30;58.17;100233.47;5045153;28;1307;-57
2022/08/23 11:46:58;;;;;;;;;;;;;;;17.30;57.99;100234.28;5070532;28;1970;-57
2022/08/23 11:49:32;;;;;;;;;;;;;;;17.30;57.96;100228.78;5050678;28;1154;-57
2022/08/23 11:52:17;;;;;;;;;;;;;;;17.32;57.96;100236.72;5043531;28;1472;-59
2022/08/23 11:55:02;;;;;;;;;;;;;;;17.32;58.02;100236.72;5072474;28;1377;-58
2022/08/23 11:57:34;;;;;;;;;;;;;;;17.34;57.92;100231.78;5069300;28;1334;-57
2022/08/23 12:00:11;;;;;;;;;;;;;;;17.31;58.10;100222.19;5073513;28;977;-57
2022/08/23 12:02:46;;;;;;;;;;;;;;;17.37;57.87;100211.97;5052929;28;1285;-57
2022/08/23 12:05:19;;;;;;;;;;;;;;;17.33;58.02;100214.47;5067510;28;885;-57
2022/08/23 12:07:52;;;;;;;;;;;;;;;17.30;58.09;100212.31;5064276;28;2003;-57
2022/08/23 12:10:22;;;;;;;;;;;;;;;17.26;58.39;100222.22;5067418;28;1227;-57
2022/08/23 12:13:07;;;;;;;;;;;;;;;17.29;58.19;100221.66;5066849;28;1232;-56
2022/08/23 12:15:53;;;;;;;;;;;;;;;17.30;57.94;100223.28;5050289;28;1332;-58
2022/08/23 12:18:19;;;;;;;;;;;;;;;17.23;58.03;100228.31;5023985;28;1390;-58
2022/08/23 12:20:44;;;;;;;;;;;;;;;17.23;58.01;100222.81;5046373;28;1327;-58
2022/08/23 12:23:14;;;;;;;;;;;;;;;17.20;58.04;100223.41;5078360;28;1001;-58
2022/08/23 12:25:40;;;;;;;;;;;;;;;17.22;57.96;100212.94;5078986;28;1091;-60
2022/08/23 12:28:28;;;;;;;;;;;;;;;17.19;58.21;100216.28;5055732;28;1993;-58
2022/08/23 12:31:12;;;;;;;;;;;;;;;17.24;57.78;100213.47;5056382;28;1172;-62
2022/08/23 12:33:38;;;;;;;;;;;;;;;17.18;58.05;100217.38;5068063;28;1112;-57
2022/08/23 12:36:04;;;;;;;;;;;;;;;17.17;58.12;100213.00;5072692;28;1287;-56
2022/08/23 12:38:32;;;;;;;;;;;;;;;17.21;58.05;100209.38;5073427;28;981;-59
2022/08/23 12:40:57;;;;;;;;;;;;;;;17.23;58.13;100211.84;5069277;28;1096;-59
2022/08/23 12:43:27;;;;;;;;;;;;;;;17.16;58.08;100214.91;5048554;28;1184;-58
2022/08/23 12:45:56;;;;;;;;;;;;;;;17.21;58.02;100208.56;5064909;28;946;-57
2022/08/23 12:48:23;;;;;;;;;;;;;;;17.19;58.08;100205.28;5060705;28;2067;-56
2022/08/23 12:50:55;;;;;;;;;;;;;;;17.19;58.28;100216.28;5067750;28;1037;-59
2022/08/23 12:56:56;;;;;;;;;;;;;;;17.19;58.12;100210.78;5066522;28;864;-56
2022/08/23 12:59:24;;;;;;;;;;;;;;;17.18;58.47;100214.63;5059639;28;1076;-58
2022/08/23 13:01:50;;;;;;;;;;;;;;;17.21;58.46;100220.38;5064667;28;946;-58
2022/08/23 13:04:15;;;;;;;;;;;;;;;17.19;58.42;100227.25;5055383;28;1419;-57
2022/08/23 13:06:42;;;;;;;;;;;;;;;17.20;58.47;100228.91;5078045;28;1902;-58
2022/08/23 13:09:28;;;;;;;;;;;;;;;17.20;58.48;100232.47;5067923;28;966;-59
2022/08/23 13:11:54;;;;;;;;;;;;;;;17.17;58.34;100227.56;5072852;28;1009;-57
2022/08/23 13:14:40;;;;;;;;;;;;;;;17.18;58.20;100220.97;5060232;28;957;-56
2022/08/23 13:17:21;;;;;;;;;;;;;;;17.17;58.22;100218.50;5064428;28;1182;-56
2022/08/23 13:19:47;;;;;;;;;;;;;;;17.19;58.11;100216.28;5071144;28;1001;-56
2022/08/23 13:22:19;;;;;;;;;;;;;;;17.20;58.24;100215.16;5077145;28;993;-57
2022/08/23 13:24:56;;;;;;;;;;;;;;;17.16;58.06;100208.63;5077358;28;1076;-57